sensor_id;sensor_type;location;lat;lon;timestamp;temperature;humidity
5588;DHT22;2816;49.778;9.986;2022-07-29T00:00:21;21.40;68.90
5588;DHT22;2816;49.778;9.986;2022-07-29T00:02:48;21.40;69.70
5588;DHT22;2816;49.778;9.986;2022-07-29T00:05:15;21.30;69.70
5588;DHT22;2816;49.778;9.986;2022-07-29T00:07:43;21.30;69.80
5588;DHT22;2816;49.778;9.986;2022-07-29T00:10:10;21.20;69.70
5588;DHT22;2816;49.778;9.986;2022-07-29T00:12:37;21.20;69.80
5588;DHT22;2816;49.778;9.986;2022-07-29T00:15:05;21.10;70.10
5588;DHT22;2816;49.778;9.986;2022-07-29T00:17:32;21.10;70.10
5588;DHT22;2816;49.778;9.986;2022-07-29T00:20:00;21.10;69.80
5588;DHT22;2816;49.778;9.986;2022-07-29T00:22:27;20.90;69.50
5588;DHT22;2816;49.778;9.986;2022-07-29T00:24:55;20.90;70.50
5588;DHT22;2816;49.778;9.986;2022-07-29T00:27:22;21.00;70.60
5588;DHT22;2816;49.778;9.986;2022-07-29T00:29:49;20.90;70.40
5588;DHT22;2816;49.778;9.986;2022-07-29T00:32:16;20.90;70.50
5588;DHT22;2816;49.778;9.986;2022-07-29T00:34:43;20.80;70.10
5588;DHT22;2816;49.778;9.986;2022-07-29T00:37:27;20.80;70.90
5588;DHT22;2816;49.778;9.986;2022-07-29T00:39:56;20.90;70.90
5588;DHT22;2816;49.778;9.986;2022-07-29T00:42:23;20.80;70.80
5588;DHT22;2816;49.778;9.986;2022-07-29T00:44:50;20.80;70.90
5588;DHT22;2816;49.778;9.986;2022-07-29T00:47:17;20.80;71.10
5588;DHT22;2816;49.778;9.986;2022-07-29T00:49:44;20.80;71.30
5588;DHT22;2816;49.778;9.986;2022-07-29T00:52:11;20.70;71.40
5588;DHT22;2816;49.778;9.986;2022-07-29T00:54:39;20.70;71.70
5588;DHT22;2816;49.778;9.986;2022-07-29T00:57:08;20.60;72.00
5588;DHT22;2816;49.778;9.986;2022-07-29T00:59:35;20.60;72.50
5588;DHT22;2816;49.778;9.986;2022-07-29T01:02:02;20.50;72.60
5588;DHT22;2816;49.778;9.986;2022-07-29T01:04:29;20.40;72.80
5588;DHT22;2816;49.778;9.986;2022-07-29T01:06:57;20.40;72.90
5588;DHT22;2816;49.778;9.986;2022-07-29T01:09:24;20.30;73.20
5588;DHT22;2816;49.778;9.986;2022-07-29T01:11:52;20.20;73.50
5588;DHT22;2816;49.778;9.986;2022-07-29T01:14:21;20.20;73.70
5588;DHT22;2816;49.778;9.986;2022-07-29T01:16:57;20.20;73.60
5588;DHT22;2816;49.778;9.986;2022-07-29T01:19:49;20.20;73.40
5588;DHT22;2816;49.778;9.986;2022-07-29T01:22:31;20.20;73.50
5588;DHT22;2816;49.778;9.986;2022-07-29T01:25:40;20.10;74.60
5588;DHT22;2816;49.778;9.986;2022-07-29T01:28:32;20.10;74.80
5588;DHT22;2816;49.778;9.986;2022-07-29T01:31:00;20.00;74.60
5588;DHT22;2816;49.778;9.986;2022-07-29T01:33:29;19.90;75.10
5588;DHT22;2816;49.778;9.986;2022-07-29T01:36:18;19.90;75.10
5588;DHT22;2816;49.778;9.986;2022-07-29T01:38:54;19.80;75.30
5588;DHT22;2816;49.778;9.986;2022-07-29T01:41:26;19.80;75.50
5588;DHT22;2816;49.778;9.986;2022-07-29T01:44:02;19.80;75.70
5588;DHT22;2816;49.778;9.986;2022-07-29T01:46:34;19.80;75.80
5588;DHT22;2816;49.778;9.986;2022-07-29T01:49:08;19.70;75.90
5588;DHT22;2816;49.778;9.986;2022-07-29T01:51:41;19.60;76.00
5588;DHT22;2816;49.778;9.986;2022-07-29T01:54:14;19.50;76.20
5588;DHT22;2816;49.778;9.986;2022-07-29T01:56:43;19.60;76.30
5588;DHT22;2816;49.778;9.986;2022-07-29T01:59:13;19.60;76.80
5588;DHT22;2816;49.778;9.986;2022-07-29T02:01:43;19.60;77.10
5588;DHT22;2816;49.778;9.986;2022-07-29T02:04:13;19.50;76.80
5588;DHT22;2816;49.778;9.986;2022-07-29T02:06:43;19.50;77.10
5588;DHT22;2816;49.778;9.986;2022-07-29T02:09:12;19.50;77.10
5588;DHT22;2816;49.778;9.986;2022-07-29T02:11:42;19.50;77.10
5588;DHT22;2816;49.778;9.986;2022-07-29T02:14:13;19.50;77.30
5588;DHT22;2816;49.778;9.986;2022-07-29T02:16:41;19.40;77.10
5588;DHT22;2816;49.778;9.986;2022-07-29T02:19:10;19.40;77.00
5588;DHT22;2816;49.778;9.986;2022-07-29T02:21:39;19.40;76.90
5588;DHT22;2816;49.778;9.986;2022-07-29T02:24:07;19.40;76.90
5588;DHT22;2816;49.778;9.986;2022-07-29T02:26:37;19.40;77.10
5588;DHT22;2816;49.778;9.986;2022-07-29T02:29:06;19.40;77.00
5588;DHT22;2816;49.778;9.986;2022-07-29T02:31:35;19.40;77.00
5588;DHT22;2816;49.778;9.986;2022-07-29T02:34:06;19.40;77.00
5588;DHT22;2816;49.778;9.986;2022-07-29T02:36:34;19.40;76.90
5588;DHT22;2816;49.778;9.986;2022-07-29T02:39:03;19.40;77.00
5588;DHT22;2816;49.778;9.986;2022-07-29T02:41:41;19.40;77.00
5588;DHT22;2816;49.778;9.986;2022-07-29T02:44:10;19.40;77.00
5588;DHT22;2816;49.778;9.986;2022-07-29T02:46:46;19.40;76.80
5588;DHT22;2816;49.778;9.986;2022-07-29T02:49:18;19.40;77.00
5588;DHT22;2816;49.778;9.986;2022-07-29T02:51:53;19.40;76.90
5588;DHT22;2816;49.778;9.986;2022-07-29T02:54:26;19.30;76.70
5588;DHT22;2816;49.778;9.986;2022-07-29T02:56:59;19.40;77.00
5588;DHT22;2816;49.778;9.986;2022-07-29T02:59:30;19.30;77.30
5588;DHT22;2816;49.778;9.986;2022-07-29T03:02:01;19.30;77.40
5588;DHT22;2816;49.778;9.986;2022-07-29T03:04:30;19.30;76.70
5588;DHT22;2816;49.778;9.986;2022-07-29T03:07:00;19.30;76.80
5588;DHT22;2816;49.778;9.986;2022-07-29T03:09:28;19.20;77.10
5588;DHT22;2816;49.778;9.986;2022-07-29T03:11:56;19.20;77.40
5588;DHT22;2816;49.778;9.986;2022-07-29T03:14:24;19.30;77.40
5588;DHT22;2816;49.778;9.986;2022-07-29T03:16:51;19.30;76.70
5588;DHT22;2816;49.778;9.986;2022-07-29T03:19:20;19.30;76.60
5588;DHT22;2816;49.778;9.986;2022-07-29T03:21:47;19.30;76.00
5588;DHT22;2816;49.778;9.986;2022-07-29T03:24:28;19.30;76.30
5588;DHT22;2816;49.778;9.986;2022-07-29T03:26:56;19.40;76.40
5588;DHT22;2816;49.778;9.986;2022-07-29T03:29:24;19.30;76.30
5588;DHT22;2816;49.778;9.986;2022-07-29T03:31:51;19.30;76.40
5588;DHT22;2816;49.778;9.986;2022-07-29T03:34:20;19.30;76.80
5588;DHT22;2816;49.778;9.986;2022-07-29T03:36:47;19.30;76.60
5588;DHT22;2816;49.778;9.986;2022-07-29T03:39:18;19.20;76.20
5588;DHT22;2816;49.778;9.986;2022-07-29T03:41:49;19.20;76.70
5588;DHT22;2816;49.778;9.986;2022-07-29T03:44:17;19.10;76.60
5588;DHT22;2816;49.778;9.986;2022-07-29T03:46:46;19.10;76.80
5588;DHT22;2816;49.778;9.986;2022-07-29T03:49:15;19.10;76.80
5588;DHT22;2816;49.778;9.986;2022-07-29T03:51:44;19.10;76.90
5588;DHT22;2816;49.778;9.986;2022-07-29T03:54:12;19.10;77.00
5588;DHT22;2816;49.778;9.986;2022-07-29T03:56:42;19.10;77.00
5588;DHT22;2816;49.778;9.986;2022-07-29T03:59:11;19.10;76.80
5588;DHT22;2816;49.778;9.986;2022-07-29T04:01:39;19.10;77.20
5588;DHT22;2816;49.778;9.986;2022-07-29T04:04:07;19.10;77.60
5588;DHT22;2816;49.778;9.986;2022-07-29T04:06:39;19.10;77.50
5588;DHT22;2816;49.778;9.986;2022-07-29T04:09:08;19.10;77.90
5588;DHT22;2816;49.778;9.986;2022-07-29T04:11:36;19.10;78.30
5588;DHT22;2816;49.778;9.986;2022-07-29T04:14:03;19.10;78.80
5588;DHT22;2816;49.778;9.986;2022-07-29T04:16:30;19.10;79.20
5588;DHT22;2816;49.778;9.986;2022-07-29T04:18:57;19.10;79.30
5588;DHT22;2816;49.778;9.986;2022-07-29T04:21:24;19.10;79.20
5588;DHT22;2816;49.778;9.986;2022-07-29T04:23:51;19.00;79.40
5588;DHT22;2816;49.778;9.986;2022-07-29T04:26:20;19.00;79.70
5588;DHT22;2816;49.778;9.986;2022-07-29T04:28:47;19.00;79.50
5588;DHT22;2816;49.778;9.986;2022-07-29T04:31:14;18.90;79.20
5588;DHT22;2816;49.778;9.986;2022-07-29T04:33:41;18.90;79.70
5588;DHT22;2816;49.778;9.986;2022-07-29T04:36:09;18.90;80.00
5588;DHT22;2816;49.778;9.986;2022-07-29T04:38:37;18.90;80.20
5588;DHT22;2816;49.778;9.986;2022-07-29T04:41:04;19.00;80.00
5588;DHT22;2816;49.778;9.986;2022-07-29T04:43:33;18.90;80.00
5588;DHT22;2816;49.778;9.986;2022-07-29T04:46:00;18.90;80.40
5588;DHT22;2816;49.778;9.986;2022-07-29T04:48:27;18.90;80.20
5588;DHT22;2816;49.778;9.986;2022-07-29T04:50:54;19.00;80.40
5588;DHT22;2816;49.778;9.986;2022-07-29T04:53:21;19.00;80.80
5588;DHT22;2816;49.778;9.986;2022-07-29T04:55:48;19.00;80.90
5588;DHT22;2816;49.778;9.986;2022-07-29T04:58:15;19.00;81.00
5588;DHT22;2816;49.778;9.986;2022-07-29T05:00:44;18.90;81.20
5588;DHT22;2816;49.778;9.986;2022-07-29T05:03:11;18.90;80.70
5588;DHT22;2816;49.778;9.986;2022-07-29T05:05:38;18.90;80.30
5588;DHT22;2816;49.778;9.986;2022-07-29T05:08:05;18.90;80.00
5588;DHT22;2816;49.778;9.986;2022-07-29T05:10:32;18.90;81.00
5588;DHT22;2816;49.778;9.986;2022-07-29T05:13:01;18.90;80.80
5588;DHT22;2816;49.778;9.986;2022-07-29T05:15:28;18.90;80.50
5588;DHT22;2816;49.778;9.986;2022-07-29T05:17:56;18.90;80.00
5588;DHT22;2816;49.778;9.986;2022-07-29T05:20:23;18.90;80.30
5588;DHT22;2816;49.778;9.986;2022-07-29T05:22:53;18.90;80.30
5588;DHT22;2816;49.778;9.986;2022-07-29T05:25:21;19.00;80.40
5588;DHT22;2816;49.778;9.986;2022-07-29T05:27:48;19.00;80.10
5588;DHT22;2816;49.778;9.986;2022-07-29T05:30:15;19.00;80.10
5588;DHT22;2816;49.778;9.986;2022-07-29T05:32:42;19.00;80.60
5588;DHT22;2816;49.778;9.986;2022-07-29T05:35:10;19.10;81.50
5588;DHT22;2816;49.778;9.986;2022-07-29T05:37:37;19.00;80.80
5588;DHT22;2816;49.778;9.986;2022-07-29T05:40:05;19.00;80.50
5588;DHT22;2816;49.778;9.986;2022-07-29T05:42:33;19.00;80.40
5588;DHT22;2816;49.778;9.986;2022-07-29T05:45:00;19.00;80.60
5588;DHT22;2816;49.778;9.986;2022-07-29T05:47:27;19.10;80.50
5588;DHT22;2816;49.778;9.986;2022-07-29T05:49:54;19.10;80.80
5588;DHT22;2816;49.778;9.986;2022-07-29T05:52:23;19.20;80.10
5588;DHT22;2816;49.778;9.986;2022-07-29T05:54:50;19.30;79.80
5588;DHT22;2816;49.778;9.986;2022-07-29T05:57:17;19.30;79.80
5588;DHT22;2816;49.778;9.986;2022-07-29T05:59:44;19.40;79.60
5588;DHT22;2816;49.778;9.986;2022-07-29T06:02:11;19.40;79.30
5588;DHT22;2816;49.778;9.986;2022-07-29T06:04:38;19.40;79.50
5588;DHT22;2816;49.778;9.986;2022-07-29T06:07:05;19.50;79.50
5588;DHT22;2816;49.778;9.986;2022-07-29T06:09:34;19.60;79.10
5588;DHT22;2816;49.778;9.986;2022-07-29T06:12:02;19.70;79.20
5588;DHT22;2816;49.778;9.986;2022-07-29T06:14:29;19.70;79.10
5588;DHT22;2816;49.778;9.986;2022-07-29T06:16:56;19.80;79.50
5588;DHT22;2816;49.778;9.986;2022-07-29T06:19:22;19.90;79.00
5588;DHT22;2816;49.778;9.986;2022-07-29T06:21:49;20.00;78.70
5588;DHT22;2816;49.778;9.986;2022-07-29T06:24:16;20.10;79.60
5588;DHT22;2816;49.778;9.986;2022-07-29T06:26:45;20.10;78.90
5588;DHT22;2816;49.778;9.986;2022-07-29T06:29:12;20.10;78.80
5588;DHT22;2816;49.778;9.986;2022-07-29T06:31:39;20.30;79.30
5588;DHT22;2816;49.778;9.986;2022-07-29T06:34:06;20.30;78.90
5588;DHT22;2816;49.778;9.986;2022-07-29T06:36:34;20.40;79.10
5588;DHT22;2816;49.778;9.986;2022-07-29T06:39:04;20.50;78.70
5588;DHT22;2816;49.778;9.986;2022-07-29T06:41:31;20.60;78.20
5588;DHT22;2816;49.778;9.986;2022-07-29T06:44:00;20.70;77.70
5588;DHT22;2816;49.778;9.986;2022-07-29T06:46:27;20.80;78.20
5588;DHT22;2816;49.778;9.986;2022-07-29T06:48:54;20.90;78.50
5588;DHT22;2816;49.778;9.986;2022-07-29T06:51:21;20.90;78.40
5588;DHT22;2816;49.778;9.986;2022-07-29T06:53:49;20.90;77.70
5588;DHT22;2816;49.778;9.986;2022-07-29T06:56:16;21.00;77.60
5588;DHT22;2816;49.778;9.986;2022-07-29T06:58:43;21.00;77.60
5588;DHT22;2816;49.778;9.986;2022-07-29T07:01:11;21.10;77.80
5588;DHT22;2816;49.778;9.986;2022-07-29T07:03:38;21.30;77.70
5588;DHT22;2816;49.778;9.986;2022-07-29T07:06:05;21.40;77.60
5588;DHT22;2816;49.778;9.986;2022-07-29T07:08:32;21.60;77.00
5588;DHT22;2816;49.778;9.986;2022-07-29T07:10:59;21.80;75.90
5588;DHT22;2816;49.778;9.986;2022-07-29T07:13:26;21.80;76.30
5588;DHT22;2816;49.778;9.986;2022-07-29T07:15:53;21.90;75.80
5588;DHT22;2816;49.778;9.986;2022-07-29T07:18:22;22.00;75.40
5588;DHT22;2816;49.778;9.986;2022-07-29T07:20:49;22.00;75.60
5588;DHT22;2816;49.778;9.986;2022-07-29T07:23:15;22.10;75.40
5588;DHT22;2816;49.778;9.986;2022-07-29T07:25:43;22.30;75.30
5588;DHT22;2816;49.778;9.986;2022-07-29T07:28:10;22.40;75.20
5588;DHT22;2816;49.778;9.986;2022-07-29T07:30:37;22.40;75.40
5588;DHT22;2816;49.778;9.986;2022-07-29T07:33:04;22.40;75.30
5588;DHT22;2816;49.778;9.986;2022-07-29T07:35:33;22.50;74.80
5588;DHT22;2816;49.778;9.986;2022-07-29T07:38:00;22.60;75.00
5588;DHT22;2816;49.778;9.986;2022-07-29T07:40:27;22.60;75.00
5588;DHT22;2816;49.778;9.986;2022-07-29T07:42:54;22.60;75.60
5588;DHT22;2816;49.778;9.986;2022-07-29T07:45:21;22.60;75.70
5588;DHT22;2816;49.778;9.986;2022-07-29T07:47:47;22.80;75.50
5588;DHT22;2816;49.778;9.986;2022-07-29T07:50:15;22.90;75.60
5588;DHT22;2816;49.778;9.986;2022-07-29T07:52:49;23.00;75.40
5588;DHT22;2816;49.778;9.986;2022-07-29T07:55:16;23.20;74.70
5588;DHT22;2816;49.778;9.986;2022-07-29T07:57:43;23.40;74.00
5588;DHT22;2816;49.778;9.986;2022-07-29T08:00:11;23.50;74.00
5588;DHT22;2816;49.778;9.986;2022-07-29T08:02:39;23.50;74.00
5588;DHT22;2816;49.778;9.986;2022-07-29T08:05:08;23.50;74.40
5588;DHT22;2816;49.778;9.986;2022-07-29T08:07:36;23.60;74.50
5588;DHT22;2816;49.778;9.986;2022-07-29T08:10:05;23.70;75.30
5588;DHT22;2816;49.778;9.986;2022-07-29T08:12:32;23.80;75.60
5588;DHT22;2816;49.778;9.986;2022-07-29T08:14:59;24.00;74.80
5588;DHT22;2816;49.778;9.986;2022-07-29T08:17:26;24.10;73.90
5588;DHT22;2816;49.778;9.986;2022-07-29T08:19:53;24.20;73.50
5588;DHT22;2816;49.778;9.986;2022-07-29T08:22:20;24.30;73.20
5588;DHT22;2816;49.778;9.986;2022-07-29T08:24:47;24.40;73.70
5588;DHT22;2816;49.778;9.986;2022-07-29T08:27:21;24.50;74.30
5588;DHT22;2816;49.778;9.986;2022-07-29T08:29:48;24.60;72.60
5588;DHT22;2816;49.778;9.986;2022-07-29T08:32:15;24.60;72.90
5588;DHT22;2816;49.778;9.986;2022-07-29T08:34:42;24.60;72.80
5588;DHT22;2816;49.778;9.986;2022-07-29T08:37:11;24.60;72.80
5588;DHT22;2816;49.778;9.986;2022-07-29T08:39:38;24.60;73.60
5588;DHT22;2816;49.778;9.986;2022-07-29T08:42:06;24.60;73.20
5588;DHT22;2816;49.778;9.986;2022-07-29T08:44:35;24.70;73.30
5588;DHT22;2816;49.778;9.986;2022-07-29T08:47:02;24.80;72.60
5588;DHT22;2816;49.778;9.986;2022-07-29T08:49:30;24.80;72.80
5588;DHT22;2816;49.778;9.986;2022-07-29T08:51:58;24.80;72.50
5588;DHT22;2816;49.778;9.986;2022-07-29T08:54:27;24.80;72.50
5588;DHT22;2816;49.778;9.986;2022-07-29T08:56:54;24.80;72.50
5588;DHT22;2816;49.778;9.986;2022-07-29T08:59:22;24.80;72.60
5588;DHT22;2816;49.778;9.986;2022-07-29T09:01:54;24.80;72.40
5588;DHT22;2816;49.778;9.986;2022-07-29T09:04:25;25.00;72.40
5588;DHT22;2816;49.778;9.986;2022-07-29T09:06:54;25.00;72.20
5588;DHT22;2816;49.778;9.986;2022-07-29T09:09:23;25.00;72.10
5588;DHT22;2816;49.778;9.986;2022-07-29T09:11:51;25.00;72.30
5588;DHT22;2816;49.778;9.986;2022-07-29T09:14:18;25.10;71.90
5588;DHT22;2816;49.778;9.986;2022-07-29T09:16:47;25.00;72.00
5588;DHT22;2816;49.778;9.986;2022-07-29T09:19:26;25.00;72.40
5588;DHT22;2816;49.778;9.986;2022-07-29T09:21:54;25.10;72.20
5588;DHT22;2816;49.778;9.986;2022-07-29T09:24:26;25.10;72.30
5588;DHT22;2816;49.778;9.986;2022-07-29T09:26:53;25.20;72.00
5588;DHT22;2816;49.778;9.986;2022-07-29T09:29:22;25.40;71.70
5588;DHT22;2816;49.778;9.986;2022-07-29T09:31:52;25.40;72.00
5588;DHT22;2816;49.778;9.986;2022-07-29T09:34:24;25.50;71.80
5588;DHT22;2816;49.778;9.986;2022-07-29T09:36:53;25.50;72.60
5588;DHT22;2816;49.778;9.986;2022-07-29T09:39:28;25.40;71.60
5588;DHT22;2816;49.778;9.986;2022-07-29T09:41:57;25.50;71.40
5588;DHT22;2816;49.778;9.986;2022-07-29T09:44:25;25.50;71.80
5588;DHT22;2816;49.778;9.986;2022-07-29T09:46:57;25.60;71.60
5588;DHT22;2816;49.778;9.986;2022-07-29T09:49:25;25.60;72.30
5588;DHT22;2816;49.778;9.986;2022-07-29T09:52:08;25.70;72.00
5588;DHT22;2816;49.778;9.986;2022-07-29T09:54:36;25.70;71.80
5588;DHT22;2816;49.778;9.986;2022-07-29T09:57:04;25.80;71.10
5588;DHT22;2816;49.778;9.986;2022-07-29T09:59:32;25.70;70.40
5588;DHT22;2816;49.778;9.986;2022-07-29T10:01:59;25.60;71.70
5588;DHT22;2816;49.778;9.986;2022-07-29T10:04:37;25.60;72.20
5588;DHT22;2816;49.778;9.986;2022-07-29T10:07:05;25.80;72.30
5588;DHT22;2816;49.778;9.986;2022-07-29T10:09:34;25.90;71.20
5588;DHT22;2816;49.778;9.986;2022-07-29T10:12:09;26.00;71.40
5588;DHT22;2816;49.778;9.986;2022-07-29T10:14:39;26.10;71.30
5588;DHT22;2816;49.778;9.986;2022-07-29T10:17:08;26.10;71.00
5588;DHT22;2816;49.778;9.986;2022-07-29T10:19:37;25.70;71.90
5588;DHT22;2816;49.778;9.986;2022-07-29T10:22:07;26.00;72.40
5588;DHT22;2816;49.778;9.986;2022-07-29T10:24:37;26.10;72.20
5588;DHT22;2816;49.778;9.986;2022-07-29T10:27:06;26.10;72.00
5588;DHT22;2816;49.778;9.986;2022-07-29T10:29:33;26.10;71.30
5588;DHT22;2816;49.778;9.986;2022-07-29T10:32:25;26.20;71.70
5588;DHT22;2816;49.778;9.986;2022-07-29T10:35:06;26.20;71.00
5588;DHT22;2816;49.778;9.986;2022-07-29T10:37:46;26.10;71.40
5588;DHT22;2816;49.778;9.986;2022-07-29T10:40:28;26.00;71.40
5588;DHT22;2816;49.778;9.986;2022-07-29T10:43:20;26.00;71.80
5588;DHT22;2816;49.778;9.986;2022-07-29T10:45:49;26.10;71.50
5588;DHT22;2816;49.778;9.986;2022-07-29T10:48:16;26.00;71.80
5588;DHT22;2816;49.778;9.986;2022-07-29T10:50:53;26.10;72.60
5588;DHT22;2816;49.778;9.986;2022-07-29T10:53:21;26.10;71.60
5588;DHT22;2816;49.778;9.986;2022-07-29T10:55:50;26.30;71.30
5588;DHT22;2816;49.778;9.986;2022-07-29T10:58:19;26.00;72.00
5588;DHT22;2816;49.778;9.986;2022-07-29T11:00:47;25.70;72.90
5588;DHT22;2816;49.778;9.986;2022-07-29T11:03:47;25.90;73.10
5588;DHT22;2816;49.778;9.986;2022-07-29T11:06:17;26.00;72.50
5588;DHT22;2816;49.778;9.986;2022-07-29T11:08:44;25.90;71.30
5588;DHT22;2816;49.778;9.986;2022-07-29T11:11:36;26.00;72.30
5588;DHT22;2816;49.778;9.986;2022-07-29T11:14:06;26.10;71.80
5588;DHT22;2816;49.778;9.986;2022-07-29T11:17:02;26.00;72.40
5588;DHT22;2816;49.778;9.986;2022-07-29T11:19:29;26.00;72.10
5588;DHT22;2816;49.778;9.986;2022-07-29T11:21:57;26.20;72.50
5588;DHT22;2816;49.778;9.986;2022-07-29T11:24:25;26.10;71.00
5588;DHT22;2816;49.778;9.986;2022-07-29T11:27:09;25.80;71.60
5588;DHT22;2816;49.778;9.986;2022-07-29T11:29:40;25.80;71.90
5588;DHT22;2816;49.778;9.986;2022-07-29T11:32:16;25.90;72.10
5588;DHT22;2816;49.778;9.986;2022-07-29T11:34:47;26.10;71.90
5588;DHT22;2816;49.778;9.986;2022-07-29T11:37:19;26.20;71.40
5588;DHT22;2816;49.778;9.986;2022-07-29T11:42:50;26.70;70.40
5588;DHT22;2816;49.778;9.986;2022-07-29T11:45:20;26.60;70.10
5588;DHT22;2816;49.778;9.986;2022-07-29T11:47:50;26.90;71.20
5588;DHT22;2816;49.778;9.986;2022-07-29T11:50:30;27.20;71.10
5588;DHT22;2816;49.778;9.986;2022-07-29T11:52:57;27.30;69.90
5588;DHT22;2816;49.778;9.986;2022-07-29T11:55:25;27.80;70.20
5588;DHT22;2816;49.778;9.986;2022-07-29T11:57:55;27.90;69.60
5588;DHT22;2816;49.778;9.986;2022-07-29T12:00:24;28.00;70.00
5588;DHT22;2816;49.778;9.986;2022-07-29T12:02:51;28.00;70.80
5588;DHT22;2816;49.778;9.986;2022-07-29T12:05:19;27.90;69.90
5588;DHT22;2816;49.778;9.986;2022-07-29T12:07:46;27.40;70.10
5588;DHT22;2816;49.778;9.986;2022-07-29T12:10:14;27.40;71.00
5588;DHT22;2816;49.778;9.986;2022-07-29T12:12:41;27.40;70.80
5588;DHT22;2816;49.778;9.986;2022-07-29T12:15:14;27.40;71.20
5588;DHT22;2816;49.778;9.986;2022-07-29T12:17:43;27.70;70.20
5588;DHT22;2816;49.778;9.986;2022-07-29T12:20:10;27.90;70.10
5588;DHT22;2816;49.778;9.986;2022-07-29T12:22:40;27.60;69.40
5588;DHT22;2816;49.778;9.986;2022-07-29T12:25:11;27.80;69.50
5588;DHT22;2816;49.778;9.986;2022-07-29T12:27:41;27.70;69.40
5588;DHT22;2816;49.778;9.986;2022-07-29T12:30:11;27.90;68.90
5588;DHT22;2816;49.778;9.986;2022-07-29T12:32:41;28.30;68.40
5588;DHT22;2816;49.778;9.986;2022-07-29T12:35:10;28.40;68.60
5588;DHT22;2816;49.778;9.986;2022-07-29T12:37:40;28.70;68.20
5588;DHT22;2816;49.778;9.986;2022-07-29T12:40:08;28.90;67.40
5588;DHT22;2816;49.778;9.986;2022-07-29T12:42:35;29.00;67.30
5588;DHT22;2816;49.778;9.986;2022-07-29T12:45:04;28.70;68.00
5588;DHT22;2816;49.778;9.986;2022-07-29T12:47:31;28.70;68.00
5588;DHT22;2816;49.778;9.986;2022-07-29T12:50:10;28.40;68.90
5588;DHT22;2816;49.778;9.986;2022-07-29T12:52:37;28.30;69.30
5588;DHT22;2816;49.778;9.986;2022-07-29T12:55:05;28.40;68.50
5588;DHT22;2816;49.778;9.986;2022-07-29T12:57:35;28.40;68.30
5588;DHT22;2816;49.778;9.986;2022-07-29T13:00:12;28.10;69.30
5588;DHT22;2816;49.778;9.986;2022-07-29T13:02:40;28.10;69.30
5588;DHT22;2816;49.778;9.986;2022-07-29T13:05:10;27.80;69.50
5588;DHT22;2816;49.778;9.986;2022-07-29T13:07:38;27.50;70.20
5588;DHT22;2816;49.778;9.986;2022-07-29T13:10:13;27.50;70.10
5588;DHT22;2816;49.778;9.986;2022-07-29T13:13:05;27.40;70.70
5588;DHT22;2816;49.778;9.986;2022-07-29T13:15:32;27.30;70.40
5588;DHT22;2816;49.778;9.986;2022-07-29T13:18:00;27.00;70.60
5588;DHT22;2816;49.778;9.986;2022-07-29T13:20:33;26.90;70.40
5588;DHT22;2816;49.778;9.986;2022-07-29T13:23:01;26.80;70.80
5588;DHT22;2816;49.778;9.986;2022-07-29T13:25:30;26.80;71.00
5588;DHT22;2816;49.778;9.986;2022-07-29T13:27:57;26.80;70.80
5588;DHT22;2816;49.778;9.986;2022-07-29T13:30:24;26.80;70.80
5588;DHT22;2816;49.778;9.986;2022-07-29T13:32:52;26.90;70.50
5588;DHT22;2816;49.778;9.986;2022-07-29T13:35:20;26.80;71.10
5588;DHT22;2816;49.778;9.986;2022-07-29T13:37:49;27.00;70.80
5588;DHT22;2816;49.778;9.986;2022-07-29T13:40:16;26.70;70.90
5588;DHT22;2816;49.778;9.986;2022-07-29T13:42:43;26.70;71.00
5588;DHT22;2816;49.778;9.986;2022-07-29T13:45:10;26.80;71.40
5588;DHT22;2816;49.778;9.986;2022-07-29T13:47:37;26.50;72.00
5588;DHT22;2816;49.778;9.986;2022-07-29T13:50:07;26.50;72.20
5588;DHT22;2816;49.778;9.986;2022-07-29T13:52:35;26.50;72.60
5588;DHT22;2816;49.778;9.986;2022-07-29T13:55:05;26.50;72.30
5588;DHT22;2816;49.778;9.986;2022-07-29T13:57:32;26.40;73.40
5588;DHT22;2816;49.778;9.986;2022-07-29T13:59:59;26.50;74.60
5588;DHT22;2816;49.778;9.986;2022-07-29T14:02:26;26.40;78.70
5588;DHT22;2816;49.778;9.986;2022-07-29T14:04:53;26.30;81.50
5588;DHT22;2816;49.778;9.986;2022-07-29T14:07:20;26.00;83.20
5588;DHT22;2816;49.778;9.986;2022-07-29T14:09:48;25.50;83.60
5588;DHT22;2816;49.778;9.986;2022-07-29T14:12:17;25.40;83.90
5588;DHT22;2816;49.778;9.986;2022-07-29T14:14:44;25.40;87.00
5588;DHT22;2816;49.778;9.986;2022-07-29T14:17:11;25.00;92.00
5588;DHT22;2816;49.778;9.986;2022-07-29T14:19:38;24.30;94.50
5588;DHT22;2816;49.778;9.986;2022-07-29T14:22:06;24.10;96.50
5588;DHT22;2816;49.778;9.986;2022-07-29T14:24:33;24.10;97.90
5588;DHT22;2816;49.778;9.986;2022-07-29T14:27:00;24.10;97.40
5588;DHT22;2816;49.778;9.986;2022-07-29T14:29:28;23.90;99.90
5588;DHT22;2816;49.778;9.986;2022-07-29T14:31:55;23.80;99.90
5588;DHT22;2816;49.778;9.986;2022-07-29T14:34:22;23.80;99.90
5588;DHT22;2816;49.778;9.986;2022-07-29T14:36:49;23.50;99.90
5588;DHT22;2816;49.778;9.986;2022-07-29T14:39:16;23.60;99.90
5588;DHT22;2816;49.778;9.986;2022-07-29T14:41:43;23.70;99.90
5588;DHT22;2816;49.778;9.986;2022-07-29T14:44:10;23.70;99.30
5588;DHT22;2816;49.778;9.986;2022-07-29T14:46:39;23.80;99.90
5588;DHT22;2816;49.778;9.986;2022-07-29T14:49:06;23.80;99.90
5588;DHT22;2816;49.778;9.986;2022-07-29T14:51:32;23.80;99.90
5588;DHT22;2816;49.778;9.986;2022-07-29T14:54:00;23.80;99.90
5588;DHT22;2816;49.778;9.986;2022-07-29T14:56:27;23.60;99.90
5588;DHT22;2816;49.778;9.986;2022-07-29T14:58:55;23.70;99.90
5588;DHT22;2816;49.778;9.986;2022-07-29T15:01:23;23.70;99.90
5588;DHT22;2816;49.778;9.986;2022-07-29T15:03:52;23.70;99.90
5588;DHT22;2816;49.778;9.986;2022-07-29T15:06:19;23.60;99.90
5588;DHT22;2816;49.778;9.986;2022-07-29T15:08:46;23.60;99.90
5588;DHT22;2816;49.778;9.986;2022-07-29T15:11:13;23.70;99.90
5588;DHT22;2816;49.778;9.986;2022-07-29T15:13:40;23.60;99.90
5588;DHT22;2816;49.778;9.986;2022-07-29T15:16:07;23.60;99.90
5588;DHT22;2816;49.778;9.986;2022-07-29T15:18:34;23.60;99.90
5588;DHT22;2816;49.778;9.986;2022-07-29T15:21:05;23.40;99.90
5588;DHT22;2816;49.778;9.986;2022-07-29T15:23:33;23.30;99.90
5588;DHT22;2816;49.778;9.986;2022-07-29T15:26:01;23.20;99.90
5588;DHT22;2816;49.778;9.986;2022-07-29T15:28:28;23.20;99.90
5588;DHT22;2816;49.778;9.986;2022-07-29T15:30:55;23.00;99.90
5588;DHT22;2816;49.778;9.986;2022-07-29T15:33:22;22.90;99.90
5588;DHT22;2816;49.778;9.986;2022-07-29T15:35:49;22.90;99.90
5588;DHT22;2816;49.778;9.986;2022-07-29T15:38:18;22.90;99.90
5588;DHT22;2816;49.778;9.986;2022-07-29T15:40:45;22.70;99.90
5588;DHT22;2816;49.778;9.986;2022-07-29T15:43:12;22.90;99.90
5588;DHT22;2816;49.778;9.986;2022-07-29T15:45:40;23.00;99.90
5588;DHT22;2816;49.778;9.986;2022-07-29T15:48:27;23.10;99.90
5588;DHT22;2816;49.778;9.986;2022-07-29T15:50:54;23.00;99.90
5588;DHT22;2816;49.778;9.986;2022-07-29T15:53:22;22.80;99.90
5588;DHT22;2816;49.778;9.986;2022-07-29T15:55:50;22.50;99.90
5588;DHT22;2816;49.778;9.986;2022-07-29T15:58:17;22.20;99.90
5588;DHT22;2816;49.778;9.986;2022-07-29T16:00:44;21.70;99.90
5588;DHT22;2816;49.778;9.986;2022-07-29T16:03:11;21.80;99.90
5588;DHT22;2816;49.778;9.986;2022-07-29T16:05:38;21.70;99.90
5588;DHT22;2816;49.778;9.986;2022-07-29T16:08:05;21.70;99.90
5588;DHT22;2816;49.778;9.986;2022-07-29T16:10:34;21.60;99.90
5588;DHT22;2816;49.778;9.986;2022-07-29T16:13:01;21.60;99.90
5588;DHT22;2816;49.778;9.986;2022-07-29T16:15:28;21.30;99.90
5588;DHT22;2816;49.778;9.986;2022-07-29T16:17:55;21.20;99.90